createdAt,value
2019-02-25T00:04:46.049Z,5.35
2019-02-25T00:09:48.511Z,5.18
2019-02-25T00:14:50.974Z,5.09
2019-02-25T00:19:53.425Z,5.03
2019-02-25T00:24:55.877Z,4.85
2019-02-25T00:29:58.333Z,4.93
2019-02-25T00:35:00.785Z,4.71
2019-02-25T00:40:03.253Z,4.95
2019-02-25T00:45:05.701Z,5.06
2019-02-25T00:50:14.042Z,5.21
2019-02-25T00:55:16.500Z,5.22
2019-02-25T01:00:21.950Z,5.07
2019-02-25T01:05:24.393Z,4.67
2019-02-25T01:10:26.852Z,4.71
2019-02-25T01:15:29.310Z,4.62
2019-02-25T01:20:31.766Z,4.44
2019-02-25T01:25:34.217Z,4.40
2019-02-25T01:30:36.666Z,4.41
2019-02-25T01:35:39.188Z,4.05
2019-02-25T01:40:41.575Z,4.07
2019-02-25T01:45:44.047Z,4.05
2019-02-25T01:50:46.511Z,4.09
2019-02-25T01:55:48.964Z,3.84
2019-02-25T02:00:51.421Z,3.74
2019-02-25T02:05:53.880Z,4.02
2019-02-25T02:10:56.324Z,3.77
2019-02-25T02:15:58.761Z,3.68
2019-02-25T02:21:01.209Z,3.57
2019-02-25T02:26:03.660Z,3.48
2019-02-25T02:31:06.097Z,3.48
2019-02-25T02:36:11.414Z,3.40
2019-02-25T02:41:11.009Z,3.53
2019-02-25T02:46:20.445Z,4.37
2019-02-25T02:51:22.935Z,3.74
2019-02-25T02:56:25.426Z,3.61
2019-02-25T03:01:27.887Z,3.38
2019-02-25T03:06:30.357Z,3.38
2019-02-25T03:11:32.822Z,3.27
2019-02-25T03:16:35.268Z,3.25
2019-02-25T03:21:37.723Z,3.26
2019-02-25T03:26:40.171Z,3.05
2019-02-25T03:31:42.619Z,3.05
2019-02-25T03:36:45.065Z,3.07
2019-02-25T03:41:47.520Z,3.31
2019-02-25T03:46:49.987Z,3.30
2019-02-25T03:51:52.454Z,3.41
2019-02-25T03:56:54.897Z,3.32
2019-02-25T04:01:57.382Z,3.24
2019-02-25T04:06:59.834Z,3.33
2019-02-25T04:12:02.286Z,3.19
2019-02-25T04:17:04.738Z,3.03
2019-02-25T04:22:07.179Z,3.05
2019-02-25T04:27:09.633Z,2.81
2019-02-25T04:32:12.156Z,2.82
2019-02-25T04:37:14.547Z,2.74
2019-02-25T04:42:17.034Z,2.71
2019-02-25T04:47:19.507Z,2.85
2019-02-25T04:52:21.963Z,2.75
2019-02-25T04:57:24.425Z,2.73
2019-02-25T05:02:26.889Z,2.78
2019-02-25T05:07:29.343Z,2.75
2019-02-25T05:12:31.796Z,2.82
2019-02-25T05:17:34.251Z,2.56
2019-02-25T05:22:37.574Z,2.61
2019-02-25T05:27:39.153Z,2.65
2019-02-25T05:32:41.620Z,2.57
2019-02-25T05:37:44.126Z,2.46
2019-02-25T05:42:46.541Z,2.43
2019-02-25T05:47:48.999Z,2.41
2019-02-25T05:52:51.486Z,2.36
2019-02-25T05:57:53.935Z,2.24
2019-02-25T06:02:56.403Z,2.29
2019-02-25T06:07:58.864Z,2.37
2019-02-25T06:13:01.317Z,2.24
2019-02-25T06:18:03.781Z,2.15
2019-02-25T06:23:06.231Z,2.08
2019-02-25T06:28:08.686Z,2.06
2019-02-25T06:33:11.222Z,2.31
2019-02-25T06:38:13.682Z,2.33
2019-02-25T06:43:16.142Z,2.32
2019-02-25T06:48:18.592Z,2.50
2019-02-25T06:53:21.148Z,2.84
2019-02-25T06:58:23.636Z,3.00
2019-02-25T07:03:26.129Z,3.06
2019-02-25T07:08:40.777Z,3.14
2019-02-25T07:13:46.003Z,3.40
2019-02-25T07:19:06.888Z,3.71
2019-02-25T07:24:09.365Z,3.99
2019-02-25T07:29:20.962Z,4.54
2019-02-25T07:34:26.348Z,4.87
2019-02-25T07:39:34.716Z,5.15
2019-02-25T07:44:37.174Z,5.34
2019-02-25T07:49:57.793Z,5.84
2019-02-25T07:55:12.453Z,6.38
2019-02-25T08:00:23.946Z,6.87
2019-02-25T08:05:26.408Z,7.35
2019-02-25T08:10:28.877Z,7.69
2019-02-25T08:15:31.327Z,7.92
2019-02-25T08:20:33.808Z,8.00
2019-02-25T08:25:36.267Z,8.40
2019-02-25T08:30:38.728Z,8.70
2019-02-25T08:36:02.393Z,9.01
2019-02-25T08:41:08.055Z,9.20
2019-02-25T08:46:25.812Z,9.45
2019-02-25T08:51:28.267Z,10.18
2019-02-25T08:56:30.733Z,10.10
2019-02-25T09:01:33.267Z,10.28
2019-02-25T09:06:35.658Z,10.22
2019-02-25T09:11:38.123Z,10.30
2019-02-25T09:16:40.581Z,10.39
2019-02-25T09:21:49.432Z,10.55
2019-02-25T09:26:51.886Z,10.80
2019-02-25T09:31:54.345Z,10.94
2019-02-25T09:36:56.810Z,10.94
2019-02-25T09:41:59.276Z,11.06
2019-02-25T09:47:01.911Z,11.33
2019-02-25T09:52:04.380Z,11.48
2019-02-25T09:57:06.849Z,11.80
2019-02-25T10:02:09.297Z,11.81
2019-02-25T10:07:11.767Z,11.91
2019-02-25T10:12:14.238Z,12.13
2019-02-25T10:17:23.433Z,12.26
2019-02-25T10:22:19.140Z,12.34
2019-02-25T10:27:21.595Z,12.52
2019-02-25T10:32:26.008Z,12.98
2019-02-25T10:37:26.509Z,13.57
2019-02-25T10:42:29.511Z,13.93
2019-02-25T10:47:31.435Z,13.88
2019-02-25T10:52:33.920Z,14.19
2019-02-25T10:57:36.395Z,14.68
2019-02-25T11:02:44.218Z,14.69
2019-02-25T11:07:42.048Z,14.91
2019-02-25T11:12:43.756Z,15.13
2019-02-25T11:17:47.686Z,15.00
2019-02-25T11:22:48.694Z,15.34
2019-02-25T11:27:51.127Z,15.42
2019-02-25T11:32:55.665Z,15.78
2019-02-25T11:37:58.441Z,15.82
2019-02-25T11:42:58.518Z,15.83
2019-02-25T11:48:00.989Z,15.95
2019-02-25T11:53:03.533Z,15.92
2019-02-25T11:58:06.002Z,16.05
2019-02-25T12:03:08.458Z,15.88
2019-02-25T12:08:10.917Z,15.95
2019-02-25T12:13:13.368Z,16.28
2019-02-25T12:18:15.838Z,16.20
2019-02-25T12:23:18.280Z,16.55
2019-02-25T12:28:20.741Z,16.69
2019-02-25T12:33:23.202Z,16.74
2019-02-25T12:38:25.651Z,16.75
2019-02-25T12:43:28.182Z,17.06
2019-02-25T12:48:30.650Z,16.97
2019-02-25T12:53:33.116Z,17.12
2019-02-25T12:58:35.571Z,16.98
2019-02-25T13:03:38.093Z,16.86
2019-02-25T13:08:40.542Z,16.49
2019-02-25T13:13:42.995Z,16.22
2019-02-25T13:18:45.464Z,16.34
2019-02-25T13:23:47.926Z,16.55
2019-02-25T13:28:50.395Z,16.27
2019-02-25T13:33:52.914Z,16.46
2019-02-25T13:38:55.377Z,16.18
2019-02-25T13:43:57.848Z,16.46
2019-02-25T13:49:00.312Z,16.33
2019-02-25T13:54:02.776Z,16.48
2019-02-25T13:59:05.232Z,16.41
2019-02-25T14:04:17.963Z,16.43
2019-02-25T14:09:20.413Z,16.56
2019-02-25T14:14:22.868Z,16.53
2019-02-25T14:19:25.339Z,16.28
2019-02-25T14:24:27.790Z,16.24
2019-02-25T14:29:30.267Z,16.08
2019-02-25T14:34:32.764Z,15.87
2019-02-25T14:39:36.023Z,15.87
2019-02-25T14:44:38.642Z,15.91
2019-02-25T14:49:41.070Z,15.89
2019-02-25T14:54:42.648Z,15.70
2019-02-25T14:59:45.103Z,15.66
2019-02-25T15:04:47.556Z,15.45
2019-02-25T15:09:50.038Z,15.38
2019-02-25T15:14:52.490Z,15.33
2019-02-25T15:19:54.963Z,15.11
2019-02-25T15:24:59.168Z,15.10
2019-02-25T15:29:59.882Z,14.94
2019-02-25T15:35:02.382Z,14.86
2019-02-25T15:40:09.713Z,14.82
2019-02-25T15:45:10.260Z,14.79
2019-02-25T15:50:14.692Z,14.89
2019-02-25T15:55:17.394Z,14.80
2019-02-25T16:00:21.253Z,14.83
2019-02-25T16:05:25.181Z,14.86
2019-02-25T16:10:25.595Z,14.82
2019-02-25T16:15:28.066Z,14.74
2019-02-25T16:20:32.522Z,14.56
2019-02-25T16:25:34.527Z,14.42
2019-02-25T16:30:35.561Z,14.30
2019-02-25T16:35:39.054Z,14.03
2019-02-25T16:40:40.505Z,13.82
2019-02-25T16:45:45.306Z,13.64
2019-02-25T16:50:46.391Z,13.47
2019-02-25T16:55:49.224Z,13.32
2019-02-25T17:00:50.405Z,13.04
2019-02-25T17:05:52.925Z,12.84
2019-02-25T17:10:57.391Z,12.63
2019-02-25T17:15:57.857Z,12.50
2019-02-25T17:21:00.315Z,12.28
2019-02-25T17:26:03.798Z,12.09
2019-02-25T17:31:06.590Z,11.96
2019-02-25T17:36:08.572Z,11.76
2019-02-25T17:41:10.786Z,11.48
2019-02-25T17:46:14.482Z,11.23
2019-02-25T17:51:16.189Z,11.10
2019-02-25T17:56:18.500Z,11.09
2019-02-25T18:01:21.997Z,10.96
2019-02-25T18:06:26.957Z,10.66
2019-02-25T18:11:25.344Z,10.57
2019-02-25T18:16:27.798Z,10.33
2019-02-25T18:21:30.311Z,10.23
2019-02-25T18:26:32.775Z,10.06
2019-02-25T18:31:35.248Z,9.98
2019-02-25T18:36:37.757Z,10.03
2019-02-25T18:41:40.207Z,9.88
2019-02-25T18:46:44.042Z,9.74
2019-02-25T18:51:45.222Z,9.68
2019-02-25T18:56:47.716Z,9.57
2019-02-25T19:01:51.813Z,9.38
2019-02-25T19:06:52.690Z,9.29
2019-02-25T19:11:56.178Z,9.21
2019-02-25T19:16:58.135Z,9.23
2019-02-25T19:22:00.121Z,9.19
2019-02-25T19:27:03.916Z,9.04
2019-02-25T19:32:05.083Z,8.90
2019-02-25T19:37:09.598Z,8.88
2019-02-25T19:42:09.997Z,8.81
2019-02-25T19:47:16.870Z,8.74
2019-02-25T19:52:18.111Z,8.70
2019-02-25T19:57:21.656Z,8.78
2019-02-25T20:02:24.763Z,8.56
2019-02-25T20:07:27.911Z,8.38
2019-02-25T20:12:30.851Z,8.34
2019-02-25T20:17:33.338Z,8.17
2019-02-25T20:22:36.704Z,8.20
2019-02-25T20:27:46.471Z,8.11
2019-02-25T20:32:48.942Z,8.13
2019-02-25T20:37:53.766Z,7.95
2019-02-25T20:42:55.997Z,7.82
2019-02-25T20:47:57.223Z,7.84
2019-02-25T20:53:04.955Z,7.72
2019-02-25T20:58:01.700Z,7.74
2019-02-25T21:03:04.196Z,7.73
2019-02-25T21:08:06.679Z,7.60
2019-02-25T21:13:09.151Z,7.58
2019-02-25T21:18:11.639Z,7.40
2019-02-25T21:23:14.101Z,7.41
2019-02-25T21:28:16.588Z,7.40
2019-02-25T21:33:19.891Z,7.57
2019-02-25T21:38:22.247Z,7.44
2019-02-25T21:43:28.958Z,7.12
2019-02-25T21:48:30.248Z,7.02
2019-02-25T21:53:31.813Z,7.05
2019-02-25T21:58:34.741Z,7.00
2019-02-25T22:03:39.792Z,7.04
2019-02-25T22:08:39.685Z,7.16
2019-02-25T22:13:42.138Z,7.02
2019-02-25T22:18:44.618Z,6.77
2019-02-25T22:23:47.072Z,6.58
2019-02-25T22:28:50.994Z,6.56
2019-02-25T22:33:52.000Z,6.58
2019-02-25T22:38:56.542Z,6.70
2019-02-25T22:43:56.952Z,6.63
2019-02-25T22:49:00.941Z,6.38
2019-02-25T22:54:03.666Z,6.39
2019-02-25T22:59:04.931Z,6.31
2019-02-25T23:04:13.066Z,6.38
2019-02-25T23:09:14.127Z,6.48
2019-02-25T23:14:16.259Z,6.24
2019-02-25T23:19:18.150Z,6.18
2019-02-25T23:24:19.303Z,6.18
2019-02-25T23:29:25.676Z,6.18
2019-02-25T23:34:24.222Z,6.12
2019-02-25T23:39:26.674Z,6.04
2019-02-25T23:44:29.129Z,5.94
2019-02-25T23:49:31.576Z,5.80
2019-02-25T23:54:34.027Z,5.61
2019-02-25T23:59:40.389Z,5.50
